Time;durP1;ratioP1;P1;durP2;ratioP2;P2;SDS_P1;SDS_P2;PMS_P1;PMS_P2;Temp;Humidity;BMP_temperature;BMP_pressure;BME280_temperature;BME280_humidity;BME280_pressure;Samples;Min_cycle;Max_cycle;Signal;HPM_P1;HPM_P2
2024/01/26 00:00:34;;;;;;;59.22;27.08;;;;;;;;;;5004909;28;20473;-81
2024/01/26 00:03:00;;;;;;;52.53;25.67;;;;;;;;;;5001517;28;20470;-82
2024/01/26 00:05:26;;;;;;;58.35;25.92;;;;;;;;;;5007008;28;20100;-83
2024/01/26 00:07:52;;;;;;;58.92;26.17;;;;;;;;;;5003484;28;20042;-82
2024/01/26 00:10:18;;;;;;;56.88;25.95;;;;;;;;;;5005906;28;20037;-82
2024/01/26 00:12:44;;;;;;;56.53;26.00;;;;;;;;;;4995472;28;20058;-82
2024/01/26 00:15:10;;;;;;;63.03;28.13;;;;;;;;;;4998378;28;20040;-82
2024/01/26 00:17:36;;;;;;;51.72;24.63;;;;;;;;;;5004224;28;20068;-82
2024/01/26 00:20:02;;;;;;;48.63;23.42;;;;;;;;;;4994137;28;20128;-82
2024/01/26 00:22:28;;;;;;;46.13;23.58;;;;;;;;;;4994355;28;20061;-82
2024/01/26 00:24:54;;;;;;;40.67;21.45;;;;;;;;;;5005658;28;20033;-82
2024/01/26 00:27:20;;;;;;;43.97;21.10;;;;;;;;;;5004334;28;20030;-82
2024/01/26 00:29:46;;;;;;;40.03;21.58;;;;;;;;;;5006870;28;20030;-82
2024/01/26 00:32:12;;;;;;;49.13;20.98;;;;;;;;;;5006795;28;20089;-83
2024/01/26 00:34:38;;;;;;;42.80;23.63;;;;;;;;;;4995373;28;20026;-83
2024/01/26 00:37:05;;;;;;;44.70;22.60;;;;;;;;;;5001697;28;20045;-83
2024/01/26 00:39:31;;;;;;;41.80;21.88;;;;;;;;;;4998354;28;20029;-83
2024/01/26 00:41:57;;;;;;;43.80;23.25;;;;;;;;;;5005620;28;20021;-82
2024/01/26 00:44:23;;;;;;;47.03;23.13;;;;;;;;;;5004485;28;20029;-83
2024/01/26 00:46:49;;;;;;;47.33;24.48;;;;;;;;;;5005820;28;20044;-83
2024/01/26 00:49:15;;;;;;;45.17;22.92;;;;;;;;;;5001120;28;20072;-82
2024/01/26 00:51:41;;;;;;;43.17;22.67;;;;;;;;;;5006639;28;20046;-82
2024/01/26 00:54:07;;;;;;;42.85;22.05;;;;;;;;;;4998779;28;20134;-84
2024/01/26 00:56:33;;;;;;;40.42;21.95;;;;;;;;;;4999939;28;20025;-82
2024/01/26 00:58:59;;;;;;;34.40;20.13;;;;;;;;;;4998941;28;20041;-82
2024/01/26 01:01:26;;;;;;;33.28;19.27;;;;;;;;;;5005012;28;20113;-82
2024/01/26 01:03:52;;;;;;;30.77;18.58;;;;;;;;;;4997531;28;20029;-83
2024/01/26 01:06:18;;;;;;;34.13;19.00;;;;;;;;;;5002161;28;20095;-81
2024/01/26 01:08:44;;;;;;;27.17;16.33;;;;;;;;;;4997250;28;20360;-84
2024/01/26 01:11:10;;;;;;;33.67;17.27;;;;;;;;;;5000144;28;20478;-82
2024/01/26 01:13:36;;;;;;;33.22;17.90;;;;;;;;;;4998916;28;20379;-82
2024/01/26 01:16:02;;;;;;;27.15;16.92;;;;;;;;;;5003612;28;20459;-82
2024/01/26 01:18:28;;;;;;;25.30;16.90;;;;;;;;;;5001463;28;20085;-81
2024/01/26 01:20:55;;;;;;;26.38;16.80;;;;;;;;;;5002663;28;20125;-83
2024/01/26 01:23:21;;;;;;;28.45;16.70;;;;;;;;;;4999515;28;20030;-82
2024/01/26 01:25:47;;;;;;;23.77;16.35;;;;;;;;;;5005779;28;20030;-83
2024/01/26 01:28:13;;;;;;;30.00;17.63;;;;;;;;;;5004935;28;20046;-82
2024/01/26 01:30:39;;;;;;;28.83;17.63;;;;;;;;;;5007358;28;20034;-83
2024/01/26 01:33:05;;;;;;;32.67;18.80;;;;;;;;;;5005521;28;20041;-83
2024/01/26 01:35:31;;;;;;;25.58;18.20;;;;;;;;;;5000233;28;20026;-83
2024/01/26 01:37:57;;;;;;;28.58;18.33;;;;;;;;;;5005300;28;20080;-83
2024/01/26 01:40:23;;;;;;;25.05;18.15;;;;;;;;;;5005138;28;20018;-84
2024/01/26 01:42:49;;;;;;;25.85;17.85;;;;;;;;;;5002810;28;20030;-83
2024/01/26 01:45:17;;;;;;;29.90;20.08;;;;;;;;;;5004979;28;20030;-82
2024/01/26 01:47:43;;;;;;;32.20;19.85;;;;;;;;;;5011076;28;20080;-82
2024/01/26 01:50:09;;;;;;;23.77;18.02;;;;;;;;;;5005884;28;20046;-82
2024/01/26 01:52:37;;;;;;;25.70;18.17;;;;;;;;;;5011329;28;20030;-83
2024/01/26 01:55:04;;;;;;;26.30;19.13;;;;;;;;;;5008913;28;20037;-84
2024/01/26 01:57:32;;;;;;;25.73;19.52;;;;;;;;;;5009406;28;20042;-82
2024/01/26 01:59:59;;;;;;;28.70;19.85;;;;;;;;;;5006935;28;20049;-82
2024/01/26 02:02:25;;;;;;;28.13;19.67;;;;;;;;;;5006628;28;20056;-82
2024/01/26 02:04:51;;;;;;;27.70;20.38;;;;;;;;;;5008464;28;20113;-83
2024/01/26 02:07:17;;;;;;;27.88;20.75;;;;;;;;;;5007782;28;20034;-82
2024/01/26 02:09:43;;;;;;;26.95;20.40;;;;;;;;;;5008823;28;20162;-82
2024/01/26 02:12:10;;;;;;;30.52;20.52;;;;;;;;;;5010180;28;20133;-82
2024/01/26 02:14:36;;;;;;;30.55;20.83;;;;;;;;;;5006119;28;20034;-81
2024/01/26 02:17:02;;;;;;;30.15;20.30;;;;;;;;;;5000179;28;20022;-82
2024/01/26 02:19:32;;;;;;;27.35;20.20;;;;;;;;;;5003717;28;20021;-82
2024/01/26 02:21:58;;;;;;;33.78;22.23;;;;;;;;;;5006539;28;20025;-82
2024/01/26 02:24:24;;;;;;;27.88;20.17;;;;;;;;;;4998753;28;20603;-81
2024/01/26 02:26:52;;;;;;;26.33;19.25;;;;;;;;;;5005911;28;20009;-82
2024/01/26 02:29:18;;;;;;;28.70;19.20;;;;;;;;;;5007945;28;20350;-83
2024/01/26 02:31:44;;;;;;;26.73;20.50;;;;;;;;;;4998712;28;20497;-82
2024/01/26 02:34:12;;;;;;;30.48;18.42;;;;;;;;;;5007807;28;20026;-83
2024/01/26 02:36:39;;;;;;;23.00;18.15;;;;;;;;;;5014380;28;20034;-82
2024/01/26 02:39:05;;;;;;;26.42;18.88;;;;;;;;;;5004452;28;20034;-82
2024/01/26 02:41:32;;;;;;;24.42;18.05;;;;;;;;;;5008580;28;20056;-83
2024/01/26 02:43:58;;;;;;;29.40;18.23;;;;;;;;;;5008529;28;20468;-83
2024/01/26 02:46:24;;;;;;;24.27;17.17;;;;;;;;;;5008860;28;20045;-83
2024/01/26 02:48:50;;;;;;;23.98;16.30;;;;;;;;;;5003922;28;20108;-83
2024/01/26 02:51:16;;;;;;;23.35;17.02;;;;;;;;;;5006542;28;20053;-83
2024/01/26 02:53:42;;;;;;;27.73;17.40;;;;;;;;;;5008434;28;20025;-83
2024/01/26 02:56:08;;;;;;;25.45;17.48;;;;;;;;;;5007207;28;20041;-83
2024/01/26 02:58:34;;;;;;;26.63;18.00;;;;;;;;;;5007775;28;20455;-83
2024/01/26 03:01:01;;;;;;;27.55;18.35;;;;;;;;;;5003337;28;20038;-83
2024/01/26 03:03:27;;;;;;;31.48;17.63;;;;;;;;;;5008234;28;20427;-84
2024/01/26 03:05:53;;;;;;;27.80;17.65;;;;;;;;;;5006233;28;20073;-84
2024/01/26 03:08:19;;;;;;;28.85;18.23;;;;;;;;;;5006013;28;20057;-84
2024/01/26 03:10:45;;;;;;;28.23;17.73;;;;;;;;;;5006611;28;20084;-84
2024/01/26 03:13:12;;;;;;;31.35;18.85;;;;;;;;;;5007979;28;20035;-84
2024/01/26 03:15:38;;;;;;;31.58;19.77;;;;;;;;;;5005093;28;20030;-84
2024/01/26 03:18:04;;;;;;;31.23;19.60;;;;;;;;;;5008230;28;20037;-81
2024/01/26 03:20:30;;;;;;;29.98;18.38;;;;;;;;;;5005755;28;20041;-83
2024/01/26 03:22:57;;;;;;;34.28;19.85;;;;;;;;;;5005529;28;20081;-81
2024/01/26 03:25:23;;;;;;;30.45;19.85;;;;;;;;;;5006253;28;20116;-83
2024/01/26 03:27:49;;;;;;;30.50;20.58;;;;;;;;;;5006667;28;20369;-83
2024/01/26 03:30:15;;;;;;;30.85;19.55;;;;;;;;;;5005666;28;20034;-82
2024/01/26 03:32:41;;;;;;;35.38;20.38;;;;;;;;;;5004618;28;20029;-82
2024/01/26 03:35:07;;;;;;;31.23;19.88;;;;;;;;;;5006580;28;20028;-83
2024/01/26 03:37:33;;;;;;;31.20;20.25;;;;;;;;;;5005908;28;20026;-83
2024/01/26 03:39:59;;;;;;;29.23;19.15;;;;;;;;;;5006525;28;20041;-82
2024/01/26 03:42:25;;;;;;;35.40;18.33;;;;;;;;;;5005892;28;20365;-83
2024/01/26 03:44:51;;;;;;;33.35;19.80;;;;;;;;;;5002307;28;20422;-83
2024/01/26 03:47:18;;;;;;;31.30;17.80;;;;;;;;;;5005231;28;20084;-83
2024/01/26 03:49:45;;;;;;;31.42;19.63;;;;;;;;;;5006786;28;20029;-82
2024/01/26 03:52:12;;;;;;;30.90;18.77;;;;;;;;;;5005808;28;20042;-78
2024/01/26 03:54:38;;;;;;;37.85;19.15;;;;;;;;;;5004926;28;20069;-78
2024/01/26 03:57:07;;;;;;;30.67;19.17;;;;;;;;;;4995510;28;20029;-78
2024/01/26 03:59:33;;;;;;;30.85;21.00;;;;;;;;;;4996883;28;20035;-79
2024/01/26 04:02:00;;;;;;;32.35;18.95;;;;;;;;;;5001676;28;20030;-79
2024/01/26 04:04:26;;;;;;;29.80;18.63;;;;;;;;;;5007589;28;20417;-80
2024/01/26 04:06:52;;;;;;;27.58;18.45;;;;;;;;;;5002644;28;20026;-79
2024/01/26 04:09:18;;;;;;;38.00;25.80;;;;;;;;;;4999257;28;20042;-77
2024/01/26 04:11:44;;;;;;;30.70;20.23;;;;;;;;;;5001650;28;20067;-79
2024/01/26 04:14:10;;;;;;;30.33;20.35;;;;;;;;;;4997787;28;20026;-78
2024/01/26 04:16:36;;;;;;;32.30;21.15;;;;;;;;;;5005083;28;20088;-77
2024/01/26 04:19:02;;;;;;;28.30;20.45;;;;;;;;;;5002013;28;20030;-78
2024/01/26 04:21:29;;;;;;;32.65;20.65;;;;;;;;;;5007280;28;20033;-78
2024/01/26 04:23:55;;;;;;;34.03;20.50;;;;;;;;;;5001263;28;20096;-78
2024/01/26 04:26:21;;;;;;;29.90;19.88;;;;;;;;;;4999716;28;20419;-78
2024/01/26 04:28:47;;;;;;;32.60;20.25;;;;;;;;;;4996356;28;20107;-77
2024/01/26 04:31:14;;;;;;;25.63;19.65;;;;;;;;;;5001171;28;20136;-79
2024/01/26 04:33:40;;;;;;;29.92;20.38;;;;;;;;;;5002731;28;20030;-77
2024/01/26 04:36:09;;;;;;;29.60;19.50;;;;;;;;;;5003221;28;20455;-78
2024/01/26 04:38:39;;;;;;;29.77;19.23;;;;;;;;;;4999598;28;20018;-79
2024/01/26 04:41:05;;;;;;;23.27;17.20;;;;;;;;;;4998786;28;20541;-78
2024/01/26 04:43:31;;;;;;;28.63;18.45;;;;;;;;;;5002662;28;20119;-77
2024/01/26 04:45:57;;;;;;;31.45;18.85;;;;;;;;;;5005409;28;20029;-77
2024/01/26 04:48:23;;;;;;;32.67;19.95;;;;;;;;;;5004449;28;20072;-79
2024/01/26 04:50:49;;;;;;;27.63;17.88;;;;;;;;;;5005981;28;20084;-78
2024/01/26 04:53:15;;;;;;;27.23;17.65;;;;;;;;;;5005618;28;20049;-79
2024/01/26 04:55:41;;;;;;;24.60;17.90;;;;;;;;;;5004671;28;20017;-82
2024/01/26 04:58:07;;;;;;;28.17;18.77;;;;;;;;;;5011679;28;20033;-81
2024/01/26 05:00:33;;;;;;;27.65;18.90;;;;;;;;;;5005807;28;20049;-82
2024/01/26 05:03:00;;;;;;;28.13;18.10;;;;;;;;;;5005166;28;20161;-82
2024/01/26 05:05:27;;;;;;;29.70;17.35;;;;;;;;;;5004755;28;20096;-83
2024/01/26 05:07:53;;;;;;;31.65;19.27;;;;;;;;;;5005910;28;20159;-83
2024/01/26 05:10:19;;;;;;;27.90;18.85;;;;;;;;;;5007982;28;20068;-85
2024/01/26 05:12:45;;;;;;;30.33;17.75;;;;;;;;;;5003648;28;20045;-83
2024/01/26 05:15:11;;;;;;;26.83;16.85;;;;;;;;;;5003280;28;20029;-81
2024/01/26 05:17:38;;;;;;;26.98;18.05;;;;;;;;;;5005129;28;20148;-84
2024/01/26 05:20:05;;;;;;;27.15;17.27;;;;;;;;;;5006563;28;20044;-82
2024/01/26 05:22:31;;;;;;;24.95;15.23;;;;;;;;;;5007451;28;20038;-82
2024/01/26 05:24:58;;;;;;;25.67;16.33;;;;;;;;;;5008507;28;20030;-82
2024/01/26 05:27:24;;;;;;;23.15;15.80;;;;;;;;;;5008717;28;20278;-82
2024/01/26 05:29:50;;;;;;;26.58;15.68;;;;;;;;;;5008532;28;20050;-82
2024/01/26 05:32:16;;;;;;;25.40;15.80;;;;;;;;;;5011759;28;20076;-81
2024/01/26 05:34:42;;;;;;;24.63;15.25;;;;;;;;;;5007078;28;20025;-84
2024/01/26 05:37:08;;;;;;;22.70;15.30;;;;;;;;;;5007544;28;20116;-82
2024/01/26 05:39:34;;;;;;;20.92;16.02;;;;;;;;;;5009295;28;20026;-82
2024/01/26 05:42:00;;;;;;;25.73;16.55;;;;;;;;;;5007867;28;20034;-81
2024/01/26 05:44:27;;;;;;;27.10;15.70;;;;;;;;;;5008641;28;20080;-82
2024/01/26 05:46:53;;;;;;;21.58;16.27;;;;;;;;;;5009500;28;20022;-79
2024/01/26 05:49:19;;;;;;;26.52;17.48;;;;;;;;;;5009408;28;20032;-80
2024/01/26 05:51:45;;;;;;;24.92;17.20;;;;;;;;;;5004881;28;20045;-83
2024/01/26 05:54:13;;;;;;;26.30;17.52;;;;;;;;;;5008491;28;20045;-80
2024/01/26 05:56:41;;;;;;;26.50;17.33;;;;;;;;;;5006185;28;20451;-81
2024/01/26 05:59:08;;;;;;;22.13;16.05;;;;;;;;;;5008860;28;20112;-80
2024/01/26 06:01:34;;;;;;;26.45;17.70;;;;;;;;;;5007321;28;20037;-81
2024/01/26 06:04:01;;;;;;;30.58;20.00;;;;;;;;;;5005880;28;20030;-82
2024/01/26 06:06:27;;;;;;;28.88;19.23;;;;;;;;;;5006688;28;20025;-81
2024/01/26 06:08:53;;;;;;;28.38;19.92;;;;;;;;;;5007548;28;20128;-80
2024/01/26 06:11:19;;;;;;;30.20;18.88;;;;;;;;;;5008429;28;20052;-79
2024/01/26 06:13:45;;;;;;;27.67;18.77;;;;;;;;;;5005516;28;20034;-82
2024/01/26 06:16:14;;;;;;;27.17;17.83;;;;;;;;;;5004092;28;20022;-79
2024/01/26 06:18:41;;;;;;;25.65;18.60;;;;;;;;;;5005240;28;20395;-80
2024/01/26 06:21:07;;;;;;;29.95;19.13;;;;;;;;;;5008811;28;20022;-78
2024/01/26 06:23:33;;;;;;;32.08;19.23;;;;;;;;;;5007345;28;20021;-79
2024/01/26 06:25:59;;;;;;;23.88;18.48;;;;;;;;;;5001674;28;20022;-78
2024/01/26 06:28:25;;;;;;;26.63;18.15;;;;;;;;;;5005697;28;20041;-78
2024/01/26 06:30:51;;;;;;;29.85;17.45;;;;;;;;;;5008463;28;20034;-80
2024/01/26 06:33:17;;;;;;;27.05;18.00;;;;;;;;;;5004497;28;20049;-78
2024/01/26 06:35:43;;;;;;;26.50;18.60;;;;;;;;;;5008582;28;20021;-80
2024/01/26 06:38:09;;;;;;;30.98;18.55;;;;;;;;;;5006679;28;20022;-82
2024/01/26 06:40:35;;;;;;;21.48;17.00;;;;;;;;;;5006916;28;20054;-78
2024/01/26 06:43:06;;;;;;;24.85;16.75;;;;;;;;;;5006877;28;20034;-78
2024/01/26 06:45:33;;;;;;;24.23;17.02;;;;;;;;;;5008973;28;20499;-78
2024/01/26 06:47:59;;;;;;;21.00;16.17;;;;;;;;;;5006928;28;20103;-77
2024/01/26 06:50:25;;;;;;;21.02;15.20;;;;;;;;;;5006257;28;20475;-77
2024/01/26 06:52:51;;;;;;;21.40;15.55;;;;;;;;;;5006937;28;20037;-78
2024/01/26 06:55:17;;;;;;;21.67;15.63;;;;;;;;;;5005143;28;20132;-78
2024/01/26 06:57:43;;;;;;;20.52;15.85;;;;;;;;;;5006059;28;20026;-79
2024/01/26 07:00:09;;;;;;;21.38;14.57;;;;;;;;;;5007556;28;20181;-82
2024/01/26 07:02:36;;;;;;;18.27;15.10;;;;;;;;;;5004780;28;20021;-79
2024/01/26 07:05:03;;;;;;;18.58;13.43;;;;;;;;;;5007372;28;20459;-78
2024/01/26 07:07:29;;;;;;;18.45;13.27;;;;;;;;;;5007065;28;20029;-78
2024/01/26 07:09:55;;;;;;;16.35;12.45;;;;;;;;;;5007596;28;20041;-79
2024/01/26 07:12:21;;;;;;;17.67;11.10;;;;;;;;;;5017195;28;20042;-79
2024/01/26 07:14:47;;;;;;;16.88;10.35;;;;;;;;;;5007392;28;20029;-79
2024/01/26 07:17:13;;;;;;;12.05;8.93;;;;;;;;;;5003819;28;20439;-78
2024/01/26 07:19:39;;;;;;;10.18;8.88;;;;;;;;;;5007010;28;20542;-84
2024/01/26 07:22:05;;;;;;;11.45;8.75;;;;;;;;;;5007216;28;20033;-80
2024/01/26 07:24:31;;;;;;;10.50;7.97;;;;;;;;;;5007217;28;20057;-78
2024/01/26 07:26:58;;;;;;;9.25;7.95;;;;;;;;;;5006672;28;20034;-79
2024/01/26 07:29:24;;;;;;;9.70;8.63;;;;;;;;;;5006172;28;20030;-80
2024/01/26 07:31:50;;;;;;;12.45;8.80;;;;;;;;;;5009252;28;20033;-79
2024/01/26 07:34:16;;;;;;;10.82;8.40;;;;;;;;;;5006845;28;20045;-81
2024/01/26 07:36:42;;;;;;;10.23;8.90;;;;;;;;;;5001889;28;20480;-81
2024/01/26 07:39:10;;;;;;;11.93;9.10;;;;;;;;;;5001428;28;20072;-80
2024/01/26 07:41:36;;;;;;;10.20;9.13;;;;;;;;;;5006813;28;20129;-80
2024/01/26 07:44:02;;;;;;;11.93;10.00;;;;;;;;;;5004296;28;20058;-76
2024/01/26 07:46:28;;;;;;;12.63;10.15;;;;;;;;;;5003170;28;20084;-80
2024/01/26 07:48:55;;;;;;;12.80;10.43;;;;;;;;;;4999768;28;20026;-80
2024/01/26 07:51:21;;;;;;;13.68;10.55;;;;;;;;;;4995920;28;20403;-78
2024/01/26 07:53:47;;;;;;;14.55;10.15;;;;;;;;;;4996512;28;20162;-77
2024/01/26 07:56:14;;;;;;;12.00;9.57;;;;;;;;;;5001848;28;20026;-79
2024/01/26 07:58:40;;;;;;;12.65;10.50;;;;;;;;;;5007328;28;20029;-78
2024/01/26 08:01:06;;;;;;;11.68;8.70;;;;;;;;;;5008174;28;20034;-78
2024/01/26 08:03:32;;;;;;;12.95;9.27;;;;;;;;;;5004530;28;20026;-78
2024/01/26 08:05:58;;;;;;;10.43;8.13;;;;;;;;;;5008590;28;20030;-78
2024/01/26 08:08:24;;;;;;;9.25;8.30;;;;;;;;;;5008264;28;20220;-78
2024/01/26 08:10:50;;;;;;;10.95;9.13;;;;;;;;;;5007787;28;20030;-78
2024/01/26 08:13:16;;;;;;;16.85;9.10;;;;;;;;;;5008430;28;20030;-78
2024/01/26 08:15:42;;;;;;;14.07;8.48;;;;;;;;;;5000950;28;20034;-76
2024/01/26 08:18:08;;;;;;;16.95;10.48;;;;;;;;;;4991179;28;20105;-79
2024/01/26 08:20:35;;;;;;;13.57;9.95;;;;;;;;;;5008458;28;20069;-77
2024/01/26 08:23:01;;;;;;;12.57;9.68;;;;;;;;;;5009358;28;20034;-75
2024/01/26 08:25:27;;;;;;;13.75;9.48;;;;;;;;;;5008199;28;20368;-83
2024/01/26 08:27:53;;;;;;;14.60;8.65;;;;;;;;;;5007144;28;20484;-78
2024/01/26 08:30:22;;;;;;;21.35;8.88;;;;;;;;;;5004617;28;20446;-78
2024/01/26 08:32:49;;;;;;;13.73;8.77;;;;;;;;;;5005148;28;20046;-82
2024/01/26 08:35:15;;;;;;;17.92;9.05;;;;;;;;;;5005409;28;20080;-79
2024/01/26 08:37:41;;;;;;;16.98;8.82;;;;;;;;;;5005009;28;20049;-79
2024/01/26 08:40:09;;;;;;;22.75;9.13;;;;;;;;;;5004405;28;20395;-77
2024/01/26 08:42:35;;;;;;;18.73;8.07;;;;;;;;;;5007506;28;20343;-78
2024/01/26 08:45:01;;;;;;;18.50;6.72;;;;;;;;;;5005706;28;20156;-77
2024/01/26 08:47:27;;;;;;;17.90;6.40;;;;;;;;;;5005357;28;20123;-77
2024/01/26 08:49:53;;;;;;;19.73;5.47;;;;;;;;;;5002715;28;20034;-80
2024/01/26 08:52:20;;;;;;;20.38;5.07;;;;;;;;;;5005620;28;20479;-77
2024/01/26 08:54:46;;;;;;;28.90;5.68;;;;;;;;;;5008581;28;20456;-78
2024/01/26 08:57:12;;;;;;;22.35;6.32;;;;;;;;;;5012591;28;20072;-76
2024/01/26 08:59:40;;;;;;;20.85;5.47;;;;;;;;;;5009837;28;20395;-76
2024/01/26 09:02:07;;;;;;;23.92;6.22;;;;;;;;;;5014342;28;20281;-75
2024/01/26 09:04:33;;;;;;;10.90;3.22;;;;;;;;;;5011119;28;20030;-77
2024/01/26 09:06:59;;;;;;;6.40;0.90;;;;;;;;;;5005607;28;20034;-83
2024/01/26 09:09:25;;;;;;;9.63;1.77;;;;;;;;;;5009322;28;20045;-77
2024/01/26 09:11:51;;;;;;;8.65;1.50;;;;;;;;;;5005257;28;20046;-77
2024/01/26 09:14:18;;;;;;;9.10;1.23;;;;;;;;;;5011314;28;20062;-78
2024/01/26 09:16:44;;;;;;;10.75;1.67;;;;;;;;;;5011053;28;20108;-77
2024/01/26 09:19:10;;;;;;;10.82;1.30;;;;;;;;;;5008450;28;20050;-81
2024/01/26 09:21:37;;;;;;;13.55;2.08;;;;;;;;;;5010671;28;20037;-80
2024/01/26 09:24:03;;;;;;;7.00;1.27;;;;;;;;;;5010674;28;20026;-78
2024/01/26 09:26:29;;;;;;;8.57;1.75;;;;;;;;;;5009582;28;20038;-81
2024/01/26 09:28:55;;;;;;;11.70;2.67;;;;;;;;;;5012796;28;20073;-77
2024/01/26 09:31:21;;;;;;;9.25;1.65;;;;;;;;;;5017821;28;20064;-78
2024/01/26 09:33:47;;;;;;;15.18;2.10;;;;;;;;;;5011968;28;20053;-78
2024/01/26 09:36:13;;;;;;;18.48;3.13;;;;;;;;;;5007234;28;20030;-79
2024/01/26 09:38:39;;;;;;;15.70;1.90;;;;;;;;;;5011181;28;20034;-79
2024/01/26 09:41:05;;;;;;;15.23;2.08;;;;;;;;;;5005378;28;20486;-79
2024/01/26 09:43:31;;;;;;;20.42;3.00;;;;;;;;;;5014116;28;20498;-77
2024/01/26 09:45:58;;;;;;;19.83;2.60;;;;;;;;;;5008988;28;20088;-76
2024/01/26 09:48:24;;;;;;;27.55;3.67;;;;;;;;;;5010507;28;20038;-79
2024/01/26 09:50:51;;;;;;;29.30;2.42;;;;;;;;;;5009766;28;20037;-81
2024/01/26 09:53:18;;;;;;;22.90;2.72;;;;;;;;;;5010897;28;20026;-76
2024/01/26 09:55:46;;;;;;;17.63;2.47;;;;;;;;;;5007044;28;20109;-79
2024/01/26 09:58:12;;;;;;;22.63;2.30;;;;;;;;;;5009293;28;20045;-77
2024/01/26 10:00:39;;;;;;;26.08;4.28;;;;;;;;;;5015940;28;20033;-79
2024/01/26 10:03:05;;;;;;;24.58;3.28;;;;;;;;;;5013252;28;20036;-78
2024/01/26 10:05:31;;;;;;;26.95;2.83;;;;;;;;;;5009333;28;20088;-78
2024/01/26 10:07:57;;;;;;;22.88;4.10;;;;;;;;;;5004462;28;20546;-77
2024/01/26 10:10:23;;;;;;;17.70;2.95;;;;;;;;;;5003555;28;20049;-77
2024/01/26 10:12:51;;;;;;;26.52;4.43;;;;;;;;;;5009793;28;20112;-78
2024/01/26 10:15:17;;;;;;;25.08;3.42;;;;;;;;;;5011136;28;20105;-79
2024/01/26 10:17:43;;;;;;;24.67;3.28;;;;;;;;;;5026700;28;20038;-83
2024/01/26 10:20:15;;;;;;;27.20;3.67;;;;;;;;;;5008627;28;20112;-78
2024/01/26 10:22:41;;;;;;;31.17;3.85;;;;;;;;;;5007483;28;20033;-78
2024/01/26 10:25:08;;;;;;;22.50;3.72;;;;;;;;;;5010474;28;20083;-78
2024/01/26 10:27:34;;;;;;;18.63;3.20;;;;;;;;;;5007830;28;20216;-79
2024/01/26 10:30:01;;;;;;;24.55;3.97;;;;;;;;;;5009139;28;20388;-80
2024/01/26 10:32:28;;;;;;;26.92;3.20;;;;;;;;;;5008095;28;20084;-79
2024/01/26 10:34:58;;;;;;;18.77;2.90;;;;;;;;;;5007791;28;20368;-78
2024/01/26 10:37:27;;;;;;;12.85;3.58;;;;;;;;;;5003549;28;20049;-79
2024/01/26 10:39:54;;;;;;;20.15;4.60;;;;;;;;;;5010352;28;20124;-80
2024/01/26 10:42:20;;;;;;;18.25;3.30;;;;;;;;;;5002745;28;20093;-78
2024/01/26 10:44:48;;;;;;;18.40;3.25;;;;;;;;;;4999746;28;20037;-79
2024/01/26 10:47:15;;;;;;;23.33;3.78;;;;;;;;;;4998770;28;20030;-77
2024/01/26 10:49:43;;;;;;;31.45;4.65;;;;;;;;;;5001560;28;20045;-77
2024/01/26 10:52:10;;;;;;;19.05;3.58;;;;;;;;;;4997983;28;20030;-79
2024/01/26 10:54:37;;;;;;;32.60;3.78;;;;;;;;;;5001729;28;20025;-80
2024/01/26 10:57:03;;;;;;;26.30;4.13;;;;;;;;;;5004622;28;20022;-79
2024/01/26 10:59:29;;;;;;;26.08;4.80;;;;;;;;;;5001219;28;20419;-79
2024/01/26 11:01:56;;;;;;;23.42;4.32;;;;;;;;;;5006071;28;20117;-77
2024/01/26 11:04:22;;;;;;;21.23;3.58;;;;;;;;;;5007760;28;20057;-79
2024/01/26 11:06:48;;;;;;;35.88;4.32;;;;;;;;;;5000956;28;20029;-78
2024/01/26 11:09:16;;;;;;;25.70;4.00;;;;;;;;;;5003788;28;20342;-80
2024/01/26 11:11:42;;;;;;;26.98;4.45;;;;;;;;;;5005666;28;20049;-79
2024/01/26 11:14:12;;;;;;;21.83;6.15;;;;;;;;;;5002210;28;20033;-80
2024/01/26 11:16:44;;;;;;;29.27;6.00;;;;;;;;;;5006713;28;20034;-77
2024/01/26 11:19:22;;;;;;;23.08;3.50;;;;;;;;;;5007298;28;20092;-78
2024/01/26 11:21:48;;;;;;;24.38;3.75;;;;;;;;;;5008416;28;20148;-79
2024/01/26 11:24:14;;;;;;;26.83;5.22;;;;;;;;;;5006113;28;20525;-79
2024/01/26 11:26:41;;;;;;;25.00;3.55;;;;;;;;;;5003347;28;20037;-79
2024/01/26 11:29:14;;;;;;;18.58;3.88;;;;;;;;;;5005665;28;20022;-79
2024/01/26 11:31:40;;;;;;;;;;;;;;;;;;5003323;28;20034;-78
2024/01/26 11:34:16;;;;;;;26.38;4.30;;;;;;;;;;5007306;28;20318;-78
2024/01/26 11:36:42;;;;;;;25.30;5.38;;;;;;;;;;5008291;28;20565;-78
2024/01/26 11:39:13;;;;;;;21.52;3.65;;;;;;;;;;5008689;28;20133;-79
2024/01/26 11:41:42;;;;;;;30.98;4.68;;;;;;;;;;5009374;28;20034;-77
2024/01/26 11:44:13;;;;;;;25.95;4.22;;;;;;;;;;5008678;28;20022;-79
2024/01/26 11:46:41;;;;;;;22.48;3.50;;;;;;;;;;5003463;28;20460;-78
2024/01/26 11:49:07;;;;;;;29.25;3.78;;;;;;;;;;5001267;28;20091;-79
2024/01/26 11:51:33;;;;;;;25.35;5.32;;;;;;;;;;5004370;28;20022;-78
2024/01/26 11:53:59;;;;;;;35.60;5.72;;;;;;;;;;5008624;28;20400;-81
2024/01/26 11:56:26;;;;;;;26.77;6.43;;;;;;;;;;5006657;28;20072;-82
2024/01/26 11:58:52;;;;;;;37.38;4.70;;;;;;;;;;5007775;28;20092;-80
2024/01/26 12:01:18;;;;;;;30.35;4.90;;;;;;;;;;5007615;28;20109;-81
2024/01/26 12:03:45;;;;;;;38.65;12.18;;;;;;;;;;5008351;28;20042;-81
2024/01/26 12:06:11;;;;;;;31.33;5.22;;;;;;;;;;4999606;28;20104;-78
2024/01/26 12:08:37;;;;;;;23.48;4.80;;;;;;;;;;5004575;28;20378;-79
2024/01/26 12:11:04;;;;;;;28.60;5.88;;;;;;;;;;5007258;28;20432;-80
2024/01/26 12:13:30;;;;;;;32.78;5.75;;;;;;;;;;5010544;28;20088;-81
2024/01/26 12:15:57;;;;;;;32.08;6.47;;;;;;;;;;5004369;28;20053;-83
2024/01/26 12:18:24;;;;;;;26.60;4.28;;;;;;;;;;5005898;28;20018;-85
2024/01/26 12:20:52;;;;;;;23.52;3.78;;;;;;;;;;5006965;28;20033;-81
2024/01/26 12:23:19;;;;;;;25.63;4.13;;;;;;;;;;5010510;28;20026;-81
2024/01/26 12:25:45;;;;;;;21.15;3.83;;;;;;;;;;5005554;28;20510;-83
2024/01/26 12:28:14;;;;;;;28.17;4.13;;;;;;;;;;5005916;28;20029;-83
2024/01/26 12:30:45;;;;;;;27.48;3.72;;;;;;;;;;5011376;28;20021;-81
2024/01/26 12:33:11;;;;;;;20.60;4.50;;;;;;;;;;5009265;28;20060;-82
2024/01/26 12:35:40;;;;;;;25.58;3.50;;;;;;;;;;5008240;28;20080;-81
2024/01/26 12:38:07;;;;;;;21.25;3.70;;;;;;;;;;5008213;28;20017;-80
2024/01/26 12:40:33;;;;;;;14.43;3.10;;;;;;;;;;5008832;28;20030;-82
2024/01/26 12:43:02;;;;;;;18.38;3.83;;;;;;;;;;5007054;28;20033;-81
2024/01/26 12:45:29;;;;;;;14.02;2.72;;;;;;;;;;5011327;28;20032;-82
2024/01/26 12:47:55;;;;;;;22.98;3.53;;;;;;;;;;5026321;28;20498;-84
2024/01/26 12:50:22;;;;;;;17.17;3.58;;;;;;;;;;5007607;28;20034;-81
2024/01/26 12:52:48;;;;;;;14.95;2.88;;;;;;;;;;5008300;28;20542;-81
2024/01/26 12:55:14;;;;;;;20.42;3.40;;;;;;;;;;5002991;28;20037;-81
2024/01/26 12:57:40;;;;;;;16.35;2.50;;;;;;;;;;5006979;28;20022;-82
2024/01/26 13:00:06;;;;;;;11.70;1.92;;;;;;;;;;5007232;28;20056;-81
2024/01/26 13:02:35;;;;;;;18.23;3.75;;;;;;;;;;5010457;28;20518;-82
2024/01/26 13:05:01;;;;;;;7.03;2.05;;;;;;;;;;5007449;28;20081;-80
2024/01/26 13:07:30;;;;;;;10.43;1.95;;;;;;;;;;5004245;28;20027;-83
2024/01/26 13:09:57;;;;;;;26.45;3.25;;;;;;;;;;4990752;28;20255;-82
2024/01/26 13:12:23;;;;;;;9.30;2.10;;;;;;;;;;5007300;28;20050;-83
2024/01/26 13:14:49;;;;;;;8.80;1.38;;;;;;;;;;5007131;28;20359;-82
2024/01/26 13:17:15;;;;;;;14.65;1.67;;;;;;;;;;5008521;28;20038;-81
2024/01/26 13:19:41;;;;;;;9.63;1.20;;;;;;;;;;5005287;28;20484;-81
2024/01/26 13:22:08;;;;;;;13.90;1.85;;;;;;;;;;4989208;28;20034;-82
2024/01/26 13:24:37;;;;;;;12.98;1.52;;;;;;;;;;5004390;28;20046;-82
2024/01/26 13:27:04;;;;;;;12.63;1.80;;;;;;;;;;5005132;28;20037;-82
2024/01/26 13:29:30;;;;;;;11.63;1.92;;;;;;;;;;5002873;28;20525;-82
2024/01/26 13:31:56;;;;;;;12.00;1.75;;;;;;;;;;5015058;28;20061;-82
2024/01/26 13:34:22;;;;;;;12.55;1.77;;;;;;;;;;5006990;28;20428;-82
2024/01/26 13:36:48;;;;;;;13.85;2.03;;;;;;;;;;5007767;28;20504;-82
2024/01/26 13:39:14;;;;;;;13.35;2.22;;;;;;;;;;5007236;28;20109;-82
2024/01/26 13:41:41;;;;;;;17.80;2.60;;;;;;;;;;5010090;28;20060;-82
2024/01/26 13:44:07;;;;;;;30.48;3.85;;;;;;;;;;5011503;28;20053;-82
2024/01/26 13:46:34;;;;;;;21.67;3.65;;;;;;;;;;5011645;28;20100;-82
2024/01/26 13:49:00;;;;;;;20.67;3.10;;;;;;;;;;5010154;28;20030;-82
2024/01/26 13:51:26;;;;;;;23.73;4.00;;;;;;;;;;5010550;28;20061;-81
2024/01/26 13:53:52;;;;;;;23.45;3.30;;;;;;;;;;5000217;28;20021;-82
2024/01/26 13:56:18;;;;;;;22.45;3.17;;;;;;;;;;4992377;28;20026;-82
2024/01/26 13:58:45;;;;;;;19.23;2.58;;;;;;;;;;5002149;28;20048;-82
2024/01/26 14:01:11;;;;;;;23.45;3.40;;;;;;;;;;5019359;28;20030;-82
2024/01/26 14:03:39;;;;;;;16.00;2.20;;;;;;;;;;5026233;28;20041;-83
2024/01/26 14:06:06;;;;;;;22.30;3.90;;;;;;;;;;5011133;28;20112;-82
2024/01/26 14:08:32;;;;;;;18.35;2.20;;;;;;;;;;5009331;28;20029;-83
2024/01/26 14:10:58;;;;;;;23.63;3.35;;;;;;;;;;5005124;28;20049;-82
2024/01/26 14:13:24;;;;;;;19.45;3.85;;;;;;;;;;4999431;28;20013;-83
2024/01/26 14:15:51;;;;;;;17.23;2.47;;;;;;;;;;5006706;28;20080;-81
2024/01/26 14:18:17;;;;;;;20.60;2.45;;;;;;;;;;4996812;28;20030;-84